createdAt,value
2018-04-06T00:00:32.410Z,72.56
2018-04-06T00:03:03.142Z,72.99
2018-04-06T00:05:33.699Z,72.76
2018-04-06T00:08:07.511Z,73.13
2018-04-06T00:10:38.426Z,73.42
2018-04-06T00:13:11.819Z,73.25
2018-04-06T00:15:42.378Z,73.70
2018-04-06T00:18:12.926Z,73.80
2018-04-06T00:20:44.802Z,73.41
2018-04-06T00:23:15.465Z,73.67
2018-04-06T00:25:46.098Z,73.70
2018-04-06T00:28:17.072Z,74.06
2018-04-06T00:30:48.199Z,74.24
2018-04-06T00:33:18.908Z,74.66
2018-04-06T00:35:49.566Z,74.90
2018-04-06T00:38:20.683Z,74.68
2018-04-06T00:40:52.759Z,74.64
2018-04-06T00:43:23.646Z,74.64
2018-04-06T00:45:54.460Z,74.97
2018-04-06T00:48:24.954Z,75.06
2018-04-06T00:50:56.038Z,75.40
2018-04-06T00:53:35.233Z,75.45
2018-04-06T00:56:05.952Z,75.47
2018-04-06T00:58:38.016Z,75.23
2018-04-06T01:01:09.246Z,75.30
2018-04-06T01:03:40.162Z,75.17
2018-04-06T01:06:11.326Z,75.31
2018-04-06T01:08:42.398Z,75.52
2018-04-06T01:11:13.050Z,75.92
2018-04-06T01:13:43.828Z,76.05
2018-04-06T01:16:14.795Z,75.80
2018-04-06T01:18:46.974Z,75.95
2018-04-06T01:21:17.610Z,76.05
2018-04-06T01:23:48.464Z,76.50
2018-04-06T01:26:19.104Z,76.40
2018-04-06T01:28:50.204Z,76.47
2018-04-06T01:31:21.587Z,76.75
2018-04-06T01:33:52.304Z,76.46
2018-04-06T01:36:22.965Z,76.28
2018-04-06T01:38:53.916Z,76.51
2018-04-06T01:41:24.648Z,77.23
2018-04-06T01:43:55.349Z,77.78
2018-04-06T01:46:25.996Z,77.53
2018-04-06T01:48:56.975Z,77.36
2018-04-06T01:51:27.624Z,77.32
2018-04-06T01:53:58.371Z,76.90
2018-04-06T01:56:28.986Z,77.04
2018-04-06T01:58:59.933Z,77.53
2018-04-06T02:01:30.627Z,77.52
2018-04-06T02:04:01.552Z,77.19
2018-04-06T02:06:32.118Z,77.20
2018-04-06T02:09:06.093Z,77.40
2018-04-06T02:11:36.772Z,77.69
2018-04-06T02:14:08.364Z,77.34
2018-04-06T02:16:41.756Z,77.71
2018-04-06T02:19:12.332Z,77.32
2018-04-06T02:21:44.969Z,77.58
2018-04-06T02:24:15.748Z,77.63
2018-04-06T02:26:46.368Z,77.58
2018-04-06T02:29:17.134Z,77.54
2018-04-06T02:31:49.974Z,78.03
2018-04-06T02:34:20.776Z,78.16
2018-04-06T02:36:51.755Z,77.88
2018-04-06T02:39:22.386Z,77.86
2018-04-06T02:41:52.993Z,77.43
2018-04-06T02:44:23.674Z,77.67
2018-04-06T02:46:54.276Z,77.54
2018-04-06T02:49:25.371Z,77.71
2018-04-06T02:51:57.306Z,78.07
2018-04-06T02:54:28.078Z,78.27
2018-04-06T02:56:58.703Z,78.47
2018-04-06T02:59:29.454Z,78.19
2018-04-06T03:02:01.583Z,78.60
2018-04-06T03:04:32.212Z,78.04
2018-04-06T03:07:02.927Z,78.29
2018-04-06T03:09:33.600Z,78.34
2018-04-06T03:12:04.750Z,78.46
2018-04-06T03:14:35.296Z,78.24
2018-04-06T03:17:05.952Z,78.01
2018-04-06T03:19:36.622Z,78.68
2018-04-06T03:22:08.216Z,78.58
2018-04-06T03:24:39.146Z,78.59
2018-04-06T03:27:10.109Z,79.02
2018-04-06T03:29:40.867Z,78.81
2018-04-06T03:32:11.791Z,79.06
2018-04-06T03:34:42.478Z,78.59
2018-04-06T03:37:13.078Z,78.81
2018-04-06T03:39:44.204Z,78.88
2018-04-06T03:42:14.976Z,79.09
2018-04-06T03:44:45.560Z,79.27
2018-04-06T03:47:16.334Z,79.49
2018-04-06T03:49:46.970Z,79.37
2018-04-06T03:52:17.591Z,79.25
2018-04-06T03:54:48.602Z,79.68
2018-04-06T03:57:19.380Z,79.09
2018-04-06T03:59:49.925Z,78.85
2018-04-06T04:02:20.719Z,79.08
2018-04-06T04:04:51.470Z,79.36
2018-04-06T04:07:22.046Z,79.48
2018-04-06T04:09:52.801Z,79.24
2018-04-06T04:12:24.183Z,79.18
2018-04-06T04:14:54.826Z,79.35
2018-04-06T04:17:25.498Z,79.94
2018-04-06T04:19:56.253Z,79.88
2018-04-06T04:22:27.120Z,79.89
2018-04-06T04:24:57.888Z,80.00
2018-04-06T04:27:28.936Z,79.33
2018-04-06T04:29:59.630Z,79.50
2018-04-06T04:32:30.292Z,79.91
2018-04-06T04:35:01.174Z,79.98
2018-04-06T04:37:32.032Z,79.19
2018-04-06T04:40:02.691Z,79.03
2018-04-06T04:42:33.675Z,79.17
2018-04-06T04:45:04.393Z,79.09
2018-04-06T04:47:35.175Z,79.29
2018-04-06T04:50:05.765Z,79.45
2018-04-06T04:52:36.802Z,79.11
2018-04-06T04:55:07.667Z,79.42
2018-04-06T04:57:38.361Z,79.07
2018-04-06T05:00:10.423Z,79.03
2018-04-06T05:02:41.468Z,79.64
2018-04-06T05:05:12.456Z,79.97
2018-04-06T05:07:43.099Z,79.45
2018-04-06T05:10:13.834Z,79.72
2018-04-06T05:12:44.789Z,79.59
2018-04-06T05:15:15.651Z,79.23
2018-04-06T05:17:46.365Z,79.37
2018-04-06T05:20:17.024Z,79.35
2018-04-06T05:22:47.904Z,79.73
2018-04-06T05:25:18.549Z,79.68
2018-04-06T05:27:53.236Z,79.45
2018-04-06T05:30:23.947Z,79.44
2018-04-06T05:32:55.058Z,79.73
2018-04-06T05:35:26.090Z,79.56
2018-04-06T05:37:56.730Z,78.83
2018-04-06T05:40:27.684Z,79.51
2018-04-06T05:42:58.491Z,79.17
2018-04-06T05:45:29.080Z,79.07
2018-04-06T05:47:59.803Z,79.45
2018-04-06T05:50:30.440Z,79.44
2018-04-06T05:53:01.126Z,79.41
2018-04-06T05:55:31.884Z,79.25
2018-04-06T05:58:03.972Z,78.92
2018-04-06T06:00:34.726Z,78.60
2018-04-06T06:03:05.356Z,78.33
2018-04-06T06:05:36.019Z,78.80
2018-04-06T06:08:06.665Z,78.81
2018-04-06T06:10:37.276Z,78.90
2018-04-06T06:13:08.330Z,78.21
2018-04-06T06:15:39.295Z,78.09
2018-04-06T06:18:10.198Z,77.42
2018-04-06T06:20:40.990Z,77.24
2018-04-06T06:23:12.110Z,77.01
2018-04-06T06:25:42.618Z,76.67
2018-04-06T06:28:13.266Z,76.10
2018-04-06T06:30:44.023Z,75.34
2018-04-06T06:33:14.851Z,75.37
2018-04-06T06:35:45.458Z,74.55
2018-04-06T06:38:16.396Z,73.45
2018-04-06T06:40:47.094Z,73.23
2018-04-06T06:43:17.720Z,73.13
2018-04-06T06:45:49.402Z,69.79
2018-04-06T06:48:20.512Z,69.94
2018-04-06T06:50:51.189Z,68.31
2018-04-06T06:53:21.856Z,66.06
2018-04-06T06:55:52.598Z,64.53
2018-04-06T06:58:23.260Z,64.06
2018-04-06T07:00:53.888Z,63.12
2018-04-06T07:03:24.682Z,62.73
2018-04-06T07:05:55.766Z,62.06
2018-04-06T07:08:26.558Z,61.39
2018-04-06T07:10:57.842Z,60.98
2018-04-06T07:13:29.890Z,60.49
2018-04-06T07:16:00.668Z,59.48
2018-04-06T07:18:31.302Z,59.18
2018-04-06T07:21:02.393Z,58.25
2018-04-06T07:23:33.162Z,57.62
2018-04-06T07:26:04.279Z,57.69
2018-04-06T07:28:35.012Z,57.31
2018-04-06T07:31:05.732Z,57.19
2018-04-06T07:33:36.915Z,56.84
2018-04-06T07:36:08.132Z,56.44
2018-04-06T07:38:38.819Z,56.63
2018-04-06T07:41:09.877Z,56.39
2018-04-06T07:43:40.518Z,55.68
2018-04-06T07:46:11.708Z,54.40
2018-04-06T07:48:42.451Z,51.93
2018-04-06T07:51:13.258Z,49.57
2018-04-06T07:53:44.260Z,47.45
2018-04-06T07:56:14.954Z,46.69
2018-04-06T07:58:45.912Z,44.63
2018-04-06T08:01:16.590Z,46.41
2018-04-06T08:03:47.282Z,45.26
2018-04-06T08:06:18.212Z,45.08
2018-04-06T08:08:48.990Z,43.76
2018-04-06T08:14:13.857Z,40.91
2018-04-06T08:16:44.751Z,40.52
2018-04-06T08:19:15.490Z,39.54
2018-04-06T08:21:50.422Z,38.30
2018-04-06T08:24:21.130Z,38.84
2018-04-06T08:26:51.798Z,35.91
2018-04-06T08:29:22.414Z,36.40
2018-04-06T08:43:22.478Z,31.61
2018-04-06T08:45:52.660Z,32.63
2018-04-06T08:48:23.061Z,31.76
2018-04-06T08:50:53.681Z,32.46
2018-04-06T08:53:24.311Z,31.07
2018-04-06T08:55:54.987Z,29.10
2018-04-06T08:58:26.746Z,31.42
2018-04-06T09:00:57.812Z,29.91
2018-04-06T09:03:28.632Z,30.04
2018-04-06T09:05:59.443Z,29.64
2018-04-06T09:08:30.353Z,28.00
2018-04-06T09:11:02.588Z,31.45
2018-04-06T09:13:33.404Z,30.35
2018-04-06T09:16:04.251Z,26.71
2018-04-06T09:18:35.207Z,28.32
2018-04-06T09:21:08.611Z,27.92
2018-04-06T09:23:39.458Z,25.13
2018-04-06T09:26:10.979Z,26.09
2018-04-06T09:28:41.888Z,26.40
2018-04-06T09:31:13.081Z,27.26
2018-04-06T09:33:43.926Z,27.80
2018-04-06T09:36:14.897Z,26.36
2018-04-06T09:38:45.503Z,25.27
2018-04-06T09:41:17.167Z,29.14
2018-04-06T09:43:47.877Z,28.27
2018-04-06T09:46:18.571Z,26.58
2018-04-06T09:48:49.253Z,27.51
2018-04-06T09:51:20.215Z,26.73
2018-04-06T09:53:51.101Z,27.89
2018-04-06T09:56:22.008Z,26.68
2018-04-06T09:58:52.780Z,27.38
2018-04-06T10:01:27.405Z,29.84
2018-04-06T10:03:58.213Z,29.74
2018-04-06T10:06:29.159Z,30.42
2018-04-06T10:08:59.798Z,30.28
2018-04-06T10:11:30.672Z,31.56
2018-04-06T10:14:02.534Z,27.65
2018-04-06T10:16:33.399Z,26.64
2018-04-06T10:19:03.940Z,25.72
2018-04-06T10:21:34.859Z,25.93
2018-04-06T10:24:05.623Z,26.25
2018-04-06T10:26:36.476Z,26.58
2018-04-06T10:29:07.855Z,26.23
2018-04-06T10:31:38.595Z,26.42
2018-04-06T10:34:09.274Z,26.57
2018-04-06T10:36:40.177Z,29.94
2018-04-06T10:39:11.376Z,30.04
2018-04-06T10:41:42.113Z,29.96
2018-04-06T10:44:16.712Z,30.33
2018-04-06T10:46:47.542Z,30.74
2018-04-06T10:49:18.248Z,30.97
2018-04-06T10:51:48.936Z,31.89
2018-04-06T10:54:19.672Z,29.45
2018-04-06T10:56:51.004Z,29.53
2018-04-06T10:59:21.804Z,29.89
2018-04-06T11:01:52.628Z,30.54
2018-04-06T11:04:23.551Z,28.97
2018-04-06T11:06:54.358Z,30.69
2018-04-06T11:09:25.108Z,30.73
2018-04-06T11:11:55.895Z,31.48
2018-04-06T11:14:26.552Z,33.11
2018-04-06T11:16:57.516Z,33.37
2018-04-06T11:19:28.161Z,33.72
2018-04-06T11:21:58.738Z,34.28
2018-04-06T11:24:29.728Z,34.01
2018-04-06T11:27:00.445Z,33.07
2018-04-06T11:29:31.440Z,33.27
2018-04-06T11:32:03.543Z,33.65
2018-04-06T11:34:34.207Z,32.96
2018-04-06T11:37:05.464Z,33.22
2018-04-06T11:39:38.525Z,32.79
2018-04-06T11:44:59.826Z,34.38
2018-04-06T11:47:28.368Z,34.75
2018-04-06T11:49:57.080Z,34.48
2018-04-06T11:52:25.732Z,34.31
2018-04-06T11:54:54.643Z,33.62
2018-04-06T11:57:23.349Z,33.47
2018-04-06T11:59:51.968Z,34.15
2018-04-06T12:02:20.735Z,34.02
2018-04-06T12:04:49.722Z,34.03
2018-04-06T12:07:18.415Z,34.71
2018-04-06T12:09:46.991Z,34.30
2018-04-06T12:12:15.673Z,35.50
2018-04-06T12:14:44.227Z,34.32
2018-04-06T12:17:12.922Z,34.59
2018-04-06T12:19:41.553Z,34.09
2018-04-06T12:22:10.305Z,34.57
2018-04-06T12:24:38.867Z,34.63
2018-04-06T12:27:07.883Z,34.16
2018-04-06T12:29:36.455Z,34.59
2018-04-06T12:32:05.023Z,34.38
2018-04-06T12:34:35.036Z,34.96
2018-04-06T12:37:03.733Z,34.47
2018-04-06T12:39:32.506Z,34.16
2018-04-06T12:42:03.975Z,34.86
2018-04-06T12:44:33.034Z,34.51
2018-04-06T12:47:01.635Z,33.66
2018-04-06T12:49:30.252Z,34.09
2018-04-06T12:52:03.036Z,33.91
2018-04-06T12:54:31.651Z,33.92
2018-04-06T12:57:00.361Z,34.01
2018-04-06T12:59:29.051Z,34.54
2018-04-06T13:01:58.899Z,34.04
2018-04-06T13:04:27.528Z,34.09
2018-04-06T13:06:56.163Z,34.23
2018-04-06T13:09:24.733Z,33.97
2018-04-06T13:11:53.876Z,34.54
2018-04-06T13:14:24.584Z,33.64
2018-04-06T13:16:53.282Z,32.81
2018-04-06T13:19:21.833Z,31.68
2018-04-06T13:21:50.528Z,30.07
2018-04-06T13:24:19.180Z,28.40
2018-04-06T13:26:48.156Z,27.19
2018-04-06T13:29:16.683Z,28.22
2018-04-06T13:31:45.343Z,28.00
2018-04-06T13:34:14.072Z,28.62
2018-04-06T13:36:44.067Z,28.81
2018-04-06T13:39:12.767Z,28.03
2018-04-06T13:41:41.395Z,26.22
2018-04-06T13:44:09.996Z,26.80
2018-04-06T13:46:39.311Z,26.13
2018-04-06T13:49:08.066Z,27.70
2018-04-06T13:51:36.912Z,27.57
2018-04-06T13:54:05.640Z,28.35
2018-04-06T13:56:34.606Z,28.59
2018-04-06T13:59:03.340Z,27.87
2018-04-06T14:01:31.958Z,25.95
2018-04-06T14:04:00.717Z,24.98
2018-04-06T14:06:29.573Z,23.81
2018-04-06T14:08:58.228Z,22.97
2018-04-06T14:11:26.878Z,22.64
2018-04-06T14:13:55.483Z,22.16
2018-04-06T14:16:24.128Z,21.25
2018-04-06T14:18:52.855Z,22.00
2018-04-06T14:21:21.768Z,21.53
2018-04-06T14:23:50.457Z,21.68
2018-04-06T14:26:19.101Z,21.82
2018-04-06T14:28:48.675Z,23.27
2018-04-06T14:31:17.426Z,22.07
2018-04-06T14:33:46.368Z,22.42
2018-04-06T14:36:15.303Z,22.00
2018-04-06T14:38:44.574Z,21.07
2018-04-06T14:41:13.230Z,20.84
2018-04-06T14:43:41.796Z,20.71
2018-04-06T14:46:10.804Z,19.03
2018-04-06T14:48:39.491Z,20.20
2018-04-06T14:51:08.243Z,19.61
2018-04-06T14:53:37.026Z,20.11
2018-04-06T14:56:06.009Z,18.86
2018-04-06T14:58:34.723Z,19.94
2018-04-06T15:01:03.628Z,20.02
2018-04-06T15:03:32.828Z,19.94
2018-04-06T15:06:01.719Z,19.21
2018-04-06T15:08:30.374Z,20.48
2018-04-06T15:10:59.913Z,19.40
2018-04-06T15:13:28.598Z,19.65
2018-04-06T15:15:57.523Z,19.94
2018-04-06T15:18:26.291Z,19.28
2018-04-06T15:20:55.165Z,19.84
2018-04-06T15:23:30.302Z,20.40
2018-04-06T15:25:59.366Z,19.29
2018-04-06T15:28:28.181Z,19.43
2018-04-06T15:30:58.361Z,18.85
2018-04-06T15:33:26.968Z,20.15
2018-04-06T15:35:55.579Z,18.66
2018-04-06T15:38:24.603Z,19.97
2018-04-06T15:40:53.308Z,20.38
2018-04-06T15:43:22.000Z,20.76
2018-04-06T15:45:50.674Z,21.07
2018-04-06T15:48:19.237Z,21.75
2018-04-06T15:50:47.866Z,20.54
2018-04-06T15:53:16.481Z,19.94
2018-04-06T15:55:45.407Z,20.22
2018-04-06T15:58:14.207Z,21.26
2018-04-06T16:00:42.904Z,21.36
2018-04-06T16:03:11.626Z,21.73
2018-04-06T16:05:40.465Z,22.11
2018-04-06T16:08:09.176Z,23.03
2018-04-06T16:10:37.706Z,23.54
2018-04-06T16:13:06.385Z,22.95
2018-04-06T16:15:36.310Z,23.60
2018-04-06T16:18:05.368Z,23.91
2018-04-06T16:20:34.336Z,24.28
2018-04-06T16:23:03.027Z,24.84
2018-04-06T16:25:31.937Z,26.67
2018-04-06T16:28:00.595Z,28.77
2018-04-06T16:30:29.304Z,29.28
2018-04-06T16:32:58.011Z,30.29
2018-04-06T16:35:26.554Z,31.95
2018-04-06T16:37:55.235Z,32.24
2018-04-06T16:40:24.075Z,32.94
2018-04-06T16:42:52.755Z,33.29
2018-04-06T16:45:21.429Z,33.82
2018-04-06T16:47:50.022Z,34.78
2018-04-06T16:50:18.729Z,34.13
2018-04-06T16:52:47.317Z,34.52
2018-04-06T16:55:16.083Z,34.13
2018-04-06T16:57:44.696Z,34.78
2018-04-06T17:00:15.127Z,34.90
2018-04-06T17:02:43.792Z,35.32
2018-04-06T17:05:12.765Z,35.35
2018-04-06T17:07:41.418Z,36.34
2018-04-06T17:10:10.181Z,36.48
2018-04-06T17:12:38.917Z,36.57
2018-04-06T17:15:09.120Z,37.10
2018-04-06T17:17:38.156Z,37.39
2018-04-06T17:20:08.436Z,37.12
2018-04-06T17:22:37.068Z,36.87
2018-04-06T17:25:07.096Z,36.97
2018-04-06T17:27:35.690Z,37.68
2018-04-06T17:30:04.586Z,38.01
2018-04-06T17:32:35.664Z,38.26
2018-04-06T17:35:08.923Z,38.50
2018-04-06T17:37:37.586Z,38.52
2018-04-06T17:40:10.333Z,39.23
2018-04-06T17:42:39.229Z,38.75
2018-04-06T17:45:09.775Z,38.55
2018-04-06T17:47:38.636Z,38.87
2018-04-06T17:50:08.831Z,38.99
2018-04-06T17:52:37.396Z,38.88
2018-04-06T17:55:07.822Z,39.88
2018-04-06T17:57:37.077Z,40.05
2018-04-06T18:00:05.729Z,41.05
2018-04-06T18:02:34.430Z,41.51
2018-04-06T18:05:03.058Z,41.91
2018-04-06T18:07:32.192Z,41.94
2018-04-06T18:10:02.260Z,42.21
2018-04-06T18:12:32.255Z,41.85
2018-04-06T18:15:00.834Z,42.26
2018-04-06T18:17:29.389Z,42.47
2018-04-06T18:19:58.008Z,43.06
2018-04-06T18:22:26.934Z,43.42
2018-04-06T18:24:55.795Z,43.97
2018-04-06T18:27:24.406Z,44.13
2018-04-06T18:29:52.962Z,44.03
2018-04-06T18:32:21.994Z,44.26
2018-04-06T18:34:50.701Z,44.08
2018-04-06T18:37:19.343Z,44.76
2018-04-06T18:39:48.395Z,45.10
2018-04-06T18:42:19.354Z,45.25
2018-04-06T18:44:48.034Z,45.27
2018-04-06T18:47:16.675Z,45.33
2018-04-06T18:49:45.333Z,45.56
2018-04-06T18:52:13.971Z,46.12
2018-04-06T18:54:42.586Z,46.63
2018-04-06T18:57:12.428Z,47.08
2018-04-06T18:59:40.990Z,47.73
2018-04-06T19:02:09.511Z,47.40
2018-04-06T19:04:38.016Z,47.37
2018-04-06T19:07:07.863Z,47.20
2018-04-06T19:09:36.466Z,47.16
2018-04-06T19:12:05.199Z,47.60
2018-04-06T19:14:33.767Z,47.66
2018-04-06T19:17:02.870Z,48.39
2018-04-06T19:19:31.462Z,48.17
2018-04-06T19:22:00.159Z,47.79
2018-04-06T19:24:28.762Z,48.56
2018-04-06T19:26:57.670Z,49.04
2018-04-06T19:29:26.303Z,49.03
2018-04-06T19:31:54.827Z,49.48
2018-04-06T19:34:23.447Z,50.73
2018-04-06T19:36:52.399Z,49.57
2018-04-06T19:39:20.959Z,49.63
2018-04-06T19:41:49.518Z,50.00
2018-04-06T19:44:18.201Z,50.31
2018-04-06T19:46:48.034Z,51.03
2018-04-06T19:49:20.443Z,51.53
2018-04-06T19:51:49.190Z,50.86
2018-04-06T19:54:18.485Z,50.95
2018-04-06T19:56:47.253Z,51.27
2018-04-06T19:59:15.957Z,52.70
2018-04-06T20:01:44.551Z,51.96
2018-04-06T20:04:13.129Z,51.79
2018-04-06T20:06:41.708Z,51.43
2018-04-06T20:09:14.494Z,51.67
2018-04-06T20:11:43.050Z,52.27
2018-04-06T20:14:11.587Z,52.65
2018-04-06T20:16:40.276Z,52.71
2018-04-06T20:19:09.228Z,52.97
2018-04-06T20:21:37.797Z,52.93
2018-04-06T20:24:06.325Z,53.29
2018-04-06T20:26:35.018Z,53.55
2018-04-06T20:29:04.902Z,53.71
2018-04-06T20:31:33.514Z,53.79
2018-04-06T20:34:02.077Z,53.50
2018-04-06T20:36:30.838Z,53.47
2018-04-06T20:38:59.674Z,53.21
2018-04-06T20:41:28.214Z,52.93
2018-04-06T20:43:58.494Z,52.99
2018-04-06T20:46:27.274Z,53.80
2018-04-06T20:48:56.162Z,53.86
2018-04-06T20:51:24.879Z,54.58
2018-04-06T20:53:53.601Z,54.78
2018-04-06T20:56:22.424Z,54.55
2018-04-06T20:58:50.978Z,54.63
2018-04-06T21:01:19.547Z,53.89
2018-04-06T21:03:48.099Z,55.01
2018-04-06T21:06:17.165Z,55.32
2018-04-06T21:08:45.746Z,55.81
2018-04-06T21:11:14.321Z,56.06
2018-04-06T21:13:42.889Z,56.99
2018-04-06T21:16:11.854Z,57.41
2018-04-06T21:18:40.417Z,57.04
2018-04-06T21:21:08.962Z,57.07
2018-04-06T21:23:37.605Z,56.89
2018-04-06T21:26:06.380Z,57.24
2018-04-06T21:28:34.964Z,58.07
2018-04-06T21:31:03.708Z,57.66
2018-04-06T21:33:32.229Z,58.23
2018-04-06T21:36:01.148Z,58.39
2018-04-06T21:38:30.183Z,58.29
2018-04-06T21:40:58.991Z,58.38
2018-04-06T21:43:27.575Z,59.19
2018-04-06T21:45:56.160Z,58.96
2018-04-06T21:48:24.757Z,59.19
2018-04-06T21:50:53.673Z,58.96
2018-04-06T21:53:22.241Z,59.59
2018-04-06T21:55:50.909Z,59.79
2018-04-06T21:58:19.455Z,59.62
2018-04-06T22:00:48.053Z,60.24
2018-04-06T22:03:16.637Z,60.69
2018-04-06T22:05:45.718Z,60.84
2018-04-06T22:08:14.402Z,60.98
2018-04-06T22:10:43.293Z,60.54
2018-04-06T22:13:11.834Z,60.98
2018-04-06T22:15:40.706Z,61.39
2018-04-06T22:18:09.342Z,61.80
2018-04-06T22:20:37.958Z,62.02
2018-04-06T22:23:06.659Z,62.46
2018-04-06T22:25:35.614Z,62.91
2018-04-06T22:28:04.229Z,62.70
2018-04-06T22:30:32.886Z,62.63
2018-04-06T22:33:02.494Z,62.60
2018-04-06T22:35:31.417Z,62.97
2018-04-06T22:37:59.924Z,63.17
2018-04-06T22:40:28.575Z,63.04
2018-04-06T22:42:57.194Z,62.83
2018-04-06T22:45:26.055Z,62.96
2018-04-06T22:47:54.612Z,63.24
2018-04-06T22:50:23.172Z,63.96
2018-04-06T22:52:51.894Z,63.73
2018-04-06T22:55:20.693Z,63.90
2018-04-06T22:57:49.232Z,63.93
2018-04-06T23:00:17.859Z,63.99
2018-04-06T23:02:46.544Z,64.56
2018-04-06T23:05:18.288Z,64.42
2018-04-06T23:07:46.885Z,64.56
2018-04-06T23:10:15.402Z,64.38
2018-04-06T23:12:43.936Z,64.62
2018-04-06T23:15:12.538Z,64.92
2018-04-06T23:17:41.080Z,65.12
2018-04-06T23:20:09.931Z,64.72
2018-04-06T23:22:38.665Z,64.92
2018-04-06T23:25:08.809Z,65.48
2018-04-06T23:27:37.393Z,65.65
2018-04-06T23:30:06.935Z,66.17
2018-04-06T23:32:35.621Z,66.21
2018-04-06T23:35:06.018Z,66.03
2018-04-06T23:37:34.687Z,66.27
2018-04-06T23:40:03.263Z,66.86
2018-04-06T23:42:31.933Z,66.83
2018-04-06T23:45:01.812Z,66.85
2018-04-06T23:47:30.440Z,66.74
2018-04-06T23:49:58.977Z,66.81
2018-04-06T23:52:27.569Z,67.23
2018-04-06T23:54:57.478Z,67.10
2018-04-06T23:57:26.034Z,67.15
2018-04-06T23:59:54.590Z,67.08
